sensor_id;sensor_type;location;lat;lon;timestamp;P1;durP1;ratioP1;P2;durP2;ratioP2
11078;SDS011;5592;49.234;7.268;2022-10-31T00:00:52;13.77;;;6.00;;
11078;SDS011;5592;49.234;7.268;2022-10-31T00:03:18;11.07;;;5.97;;
11078;SDS011;5592;49.234;7.268;2022-10-31T00:08:46;9.13;;;6.23;;
11078;SDS011;5592;49.234;7.268;2022-10-31T00:14:25;9.40;;;5.53;;
11078;SDS011;5592;49.234;7.268;2022-10-31T00:16:51;20.27;;;6.77;;
11078;SDS011;5592;49.234;7.268;2022-10-31T00:21:52;7.90;;;5.60;;
11078;SDS011;5592;49.234;7.268;2022-10-31T00:24:17;14.57;;;7.10;;
11078;SDS011;5592;49.234;7.268;2022-10-31T00:26:43;13.73;;;5.90;;
11078;SDS011;5592;49.234;7.268;2022-10-31T00:34:19;10.73;;;5.20;;
11078;SDS011;5592;49.234;7.268;2022-10-31T00:36:45;7.80;;;5.23;;
11078;SDS011;5592;49.234;7.268;2022-10-31T00:39:10;8.53;;;5.50;;
11078;SDS011;5592;49.234;7.268;2022-10-31T00:41:36;11.30;;;6.27;;
11078;SDS011;5592;49.234;7.268;2022-10-31T00:44:01;10.97;;;5.70;;
11078;SDS011;5592;49.234;7.268;2022-10-31T00:46:27;11.23;;;5.80;;
11078;SDS011;5592;49.234;7.268;2022-10-31T00:48:53;10.80;;;5.63;;
11078;SDS011;5592;49.234;7.268;2022-10-31T00:51:19;10.67;;;5.60;;
11078;SDS011;5592;49.234;7.268;2022-10-31T00:53:44;16.73;;;6.60;;
11078;SDS011;5592;49.234;7.268;2022-10-31T00:56:10;16.00;;;6.00;;
11078;SDS011;5592;49.234;7.268;2022-10-31T00:58:35;10.17;;;5.67;;
11078;SDS011;5592;49.234;7.268;2022-10-31T01:01:01;12.27;;;5.47;;
11078;SDS011;5592;49.234;7.268;2022-10-31T01:03:29;12.63;;;5.97;;
11078;SDS011;5592;49.234;7.268;2022-10-31T01:06:00;9.77;;;5.90;;
11078;SDS011;5592;49.234;7.268;2022-10-31T01:08:26;10.27;;;5.80;;
11078;SDS011;5592;49.234;7.268;2022-10-31T01:11:25;10.63;;;4.97;;
11078;SDS011;5592;49.234;7.268;2022-10-31T01:13:45;9.63;;;5.63;;
11078;SDS011;5592;49.234;7.268;2022-10-31T01:16:14;9.73;;;5.00;;
11078;SDS011;5592;49.234;7.268;2022-10-31T01:18:43;12.53;;;5.70;;
11078;SDS011;5592;49.234;7.268;2022-10-31T01:21:11;8.43;;;6.43;;
11078;SDS011;5592;49.234;7.268;2022-10-31T01:23:38;12.10;;;6.37;;
11078;SDS011;5592;49.234;7.268;2022-10-31T01:26:06;8.83;;;5.23;;
11078;SDS011;5592;49.234;7.268;2022-10-31T01:28:34;12.93;;;6.53;;
11078;SDS011;5592;49.234;7.268;2022-10-31T01:31:02;8.30;;;5.60;;
11078;SDS011;5592;49.234;7.268;2022-10-31T01:33:29;9.40;;;5.87;;
11078;SDS011;5592;49.234;7.268;2022-10-31T01:35:55;8.47;;;5.67;;
11078;SDS011;5592;49.234;7.268;2022-10-31T01:38:21;13.33;;;6.10;;
11078;SDS011;5592;49.234;7.268;2022-10-31T01:40:47;22.53;;;6.87;;
11078;SDS011;5592;49.234;7.268;2022-10-31T01:43:13;14.87;;;6.00;;
11078;SDS011;5592;49.234;7.268;2022-10-31T01:45:39;13.03;;;6.40;;
11078;SDS011;5592;49.234;7.268;2022-10-31T01:48:08;12.03;;;6.27;;
11078;SDS011;5592;49.234;7.268;2022-10-31T01:50:40;11.57;;;6.70;;
11078;SDS011;5592;49.234;7.268;2022-10-31T01:53:06;11.47;;;6.40;;
11078;SDS011;5592;49.234;7.268;2022-10-31T01:55:35;11.60;;;5.90;;
11078;SDS011;5592;49.234;7.268;2022-10-31T01:58:09;15.53;;;6.43;;
11078;SDS011;5592;49.234;7.268;2022-10-31T02:00:41;8.10;;;6.47;;
11078;SDS011;5592;49.234;7.268;2022-10-31T02:03:11;9.93;;;7.03;;
11078;SDS011;5592;49.234;7.268;2022-10-31T02:05:36;12.10;;;7.43;;
11078;SDS011;5592;49.234;7.268;2022-10-31T02:08:07;10.13;;;5.80;;
11078;SDS011;5592;49.234;7.268;2022-10-31T02:10:38;14.20;;;6.73;;
11078;SDS011;5592;49.234;7.268;2022-10-31T02:13:07;18.37;;;7.67;;
11078;SDS011;5592;49.234;7.268;2022-10-31T02:15:33;16.90;;;6.10;;
11078;SDS011;5592;49.234;7.268;2022-10-31T02:18:01;10.40;;;6.23;;
11078;SDS011;5592;49.234;7.268;2022-10-31T02:34:17;13.53;;;6.13;;
11078;SDS011;5592;49.234;7.268;2022-10-31T02:36:56;8.97;;;5.93;;
11078;SDS011;5592;49.234;7.268;2022-10-31T02:39:26;16.00;;;6.93;;
11078;SDS011;5592;49.234;7.268;2022-10-31T02:46:59;11.00;;;6.60;;
11078;SDS011;5592;49.234;7.268;2022-10-31T02:50:02;11.30;;;6.40;;
11078;SDS011;5592;49.234;7.268;2022-10-31T02:52:41;13.50;;;7.10;;
11078;SDS011;5592;49.234;7.268;2022-10-31T02:57:51;10.87;;;6.67;;
11078;SDS011;5592;49.234;7.268;2022-10-31T03:00:19;11.50;;;6.10;;
11078;SDS011;5592;49.234;7.268;2022-10-31T03:08:00;12.80;;;6.37;;
11078;SDS011;5592;49.234;7.268;2022-10-31T03:10:42;11.73;;;6.77;;
11078;SDS011;5592;49.234;7.268;2022-10-31T03:13:24;9.00;;;6.70;;
11078;SDS011;5592;49.234;7.268;2022-10-31T03:16:14;12.80;;;6.90;;
11078;SDS011;5592;49.234;7.268;2022-10-31T03:24:00;8.67;;;6.00;;
11078;SDS011;5592;49.234;7.268;2022-10-31T03:26:26;9.90;;;6.00;;
11078;SDS011;5592;49.234;7.268;2022-10-31T03:31:23;8.97;;;5.97;;
11078;SDS011;5592;49.234;7.268;2022-10-31T03:33:53;14.10;;;6.63;;
11078;SDS011;5592;49.234;7.268;2022-10-31T03:36:23;10.70;;;5.73;;
11078;SDS011;5592;49.234;7.268;2022-10-31T03:38:50;9.50;;;7.00;;
11078;SDS011;5592;49.234;7.268;2022-10-31T03:41:18;17.70;;;6.70;;
11078;SDS011;5592;49.234;7.268;2022-10-31T03:43:52;9.50;;;6.13;;
11078;SDS011;5592;49.234;7.268;2022-10-31T03:46:24;9.40;;;6.17;;
11078;SDS011;5592;49.234;7.268;2022-10-31T03:48:50;10.03;;;6.17;;
11078;SDS011;5592;49.234;7.268;2022-10-31T03:53:52;22.67;;;7.37;;
11078;SDS011;5592;49.234;7.268;2022-10-31T03:56:33;14.03;;;7.07;;
11078;SDS011;5592;49.234;7.268;2022-10-31T03:59:04;12.87;;;6.30;;
11078;SDS011;5592;49.234;7.268;2022-10-31T04:01:38;11.90;;;7.03;;
11078;SDS011;5592;49.234;7.268;2022-10-31T04:04:11;14.03;;;6.70;;
11078;SDS011;5592;49.234;7.268;2022-10-31T04:06:39;7.97;;;5.87;;
11078;SDS011;5592;49.234;7.268;2022-10-31T04:09:08;21.93;;;8.00;;
11078;SDS011;5592;49.234;7.268;2022-10-31T04:11:36;12.17;;;5.90;;
11078;SDS011;5592;49.234;7.268;2022-10-31T04:14:07;8.60;;;5.17;;
11078;SDS011;5592;49.234;7.268;2022-10-31T04:16:36;7.27;;;4.70;;
11078;SDS011;5592;49.234;7.268;2022-10-31T04:19:07;8.43;;;5.70;;
11078;SDS011;5592;49.234;7.268;2022-10-31T04:21:33;13.07;;;5.60;;
11078;SDS011;5592;49.234;7.268;2022-10-31T04:23:58;8.60;;;5.27;;
11078;SDS011;5592;49.234;7.268;2022-10-31T04:26:24;8.63;;;5.80;;
11078;SDS011;5592;49.234;7.268;2022-10-31T04:28:50;6.97;;;5.57;;
11078;SDS011;5592;49.234;7.268;2022-10-31T04:31:16;9.67;;;6.10;;
11078;SDS011;5592;49.234;7.268;2022-10-31T04:33:41;7.27;;;5.67;;
11078;SDS011;5592;49.234;7.268;2022-10-31T04:36:07;10.10;;;5.33;;
11078;SDS011;5592;49.234;7.268;2022-10-31T04:38:33;9.60;;;5.10;;
11078;SDS011;5592;49.234;7.268;2022-10-31T04:40:58;7.53;;;5.20;;
11078;SDS011;5592;49.234;7.268;2022-10-31T04:43:24;16.93;;;5.23;;
11078;SDS011;5592;49.234;7.268;2022-10-31T04:45:50;8.83;;;5.10;;
11078;SDS011;5592;49.234;7.268;2022-10-31T04:48:16;8.73;;;5.67;;
11078;SDS011;5592;49.234;7.268;2022-10-31T04:50:41;11.67;;;5.63;;
11078;SDS011;5592;49.234;7.268;2022-10-31T04:53:07;8.40;;;5.10;;
11078;SDS011;5592;49.234;7.268;2022-10-31T04:55:33;11.40;;;5.70;;
11078;SDS011;5592;49.234;7.268;2022-10-31T04:58:00;8.17;;;4.90;;
11078;SDS011;5592;49.234;7.268;2022-10-31T05:00:25;9.70;;;5.20;;
11078;SDS011;5592;49.234;7.268;2022-10-31T05:02:52;14.60;;;6.20;;
11078;SDS011;5592;49.234;7.268;2022-10-31T05:05:22;12.43;;;5.60;;
11078;SDS011;5592;49.234;7.268;2022-10-31T05:07:50;10.90;;;5.03;;
11078;SDS011;5592;49.234;7.268;2022-10-31T05:10:18;9.30;;;5.30;;
11078;SDS011;5592;49.234;7.268;2022-10-31T05:12:49;11.40;;;5.13;;
11078;SDS011;5592;49.234;7.268;2022-10-31T05:15:19;6.70;;;4.70;;
11078;SDS011;5592;49.234;7.268;2022-10-31T05:17:46;13.10;;;5.27;;
11078;SDS011;5592;49.234;7.268;2022-10-31T05:20:13;10.37;;;5.50;;
11078;SDS011;5592;49.234;7.268;2022-10-31T05:22:46;10.57;;;6.37;;
11078;SDS011;5592;49.234;7.268;2022-10-31T05:25:16;9.50;;;4.80;;
11078;SDS011;5592;49.234;7.268;2022-10-31T05:27:44;6.93;;;5.13;;
11078;SDS011;5592;49.234;7.268;2022-10-31T05:30:13;9.93;;;5.47;;
11078;SDS011;5592;49.234;7.268;2022-10-31T05:32:43;11.13;;;5.40;;
11078;SDS011;5592;49.234;7.268;2022-10-31T05:35:11;7.70;;;5.80;;
11078;SDS011;5592;49.234;7.268;2022-10-31T05:37:39;20.83;;;5.63;;
11078;SDS011;5592;49.234;7.268;2022-10-31T05:40:06;10.57;;;5.50;;
11078;SDS011;5592;49.234;7.268;2022-10-31T05:42:33;10.13;;;5.47;;
11078;SDS011;5592;49.234;7.268;2022-10-31T05:44:59;8.97;;;5.53;;
11078;SDS011;5592;49.234;7.268;2022-10-31T05:47:27;9.43;;;5.20;;
11078;SDS011;5592;49.234;7.268;2022-10-31T05:49:53;9.27;;;5.57;;
11078;SDS011;5592;49.234;7.268;2022-10-31T05:52:19;11.27;;;5.43;;
11078;SDS011;5592;49.234;7.268;2022-10-31T05:54:45;14.47;;;5.20;;
11078;SDS011;5592;49.234;7.268;2022-10-31T05:57:10;7.57;;;4.93;;
11078;SDS011;5592;49.234;7.268;2022-10-31T05:59:36;11.40;;;5.87;;
11078;SDS011;5592;49.234;7.268;2022-10-31T06:02:10;7.30;;;5.03;;
11078;SDS011;5592;49.234;7.268;2022-10-31T06:04:36;12.27;;;6.33;;
11078;SDS011;5592;49.234;7.268;2022-10-31T06:07:01;16.53;;;6.30;;
11078;SDS011;5592;49.234;7.268;2022-10-31T06:09:27;13.53;;;6.30;;
11078;SDS011;5592;49.234;7.268;2022-10-31T06:11:53;10.30;;;5.53;;
11078;SDS011;5592;49.234;7.268;2022-10-31T06:14:18;16.90;;;6.90;;
11078;SDS011;5592;49.234;7.268;2022-10-31T06:16:44;13.50;;;6.00;;
11078;SDS011;5592;49.234;7.268;2022-10-31T06:19:10;12.63;;;5.27;;
11078;SDS011;5592;49.234;7.268;2022-10-31T06:21:35;12.13;;;5.73;;
11078;SDS011;5592;49.234;7.268;2022-10-31T06:24:01;15.00;;;6.23;;
11078;SDS011;5592;49.234;7.268;2022-10-31T06:26:26;10.73;;;6.60;;
11078;SDS011;5592;49.234;7.268;2022-10-31T06:28:52;10.20;;;6.57;;
11078;SDS011;5592;49.234;7.268;2022-10-31T06:31:17;16.97;;;6.37;;
11078;SDS011;5592;49.234;7.268;2022-10-31T06:33:43;21.10;;;5.70;;
11078;SDS011;5592;49.234;7.268;2022-10-31T06:36:09;10.70;;;6.30;;
11078;SDS011;5592;49.234;7.268;2022-10-31T06:38:34;7.80;;;6.17;;
11078;SDS011;5592;49.234;7.268;2022-10-31T06:41:04;9.60;;;5.60;;
11078;SDS011;5592;49.234;7.268;2022-10-31T06:43:31;11.00;;;6.23;;
11078;SDS011;5592;49.234;7.268;2022-10-31T06:45:56;11.30;;;5.77;;
11078;SDS011;5592;49.234;7.268;2022-10-31T06:48:22;9.77;;;5.40;;
11078;SDS011;5592;49.234;7.268;2022-10-31T06:50:48;14.57;;;5.50;;
11078;SDS011;5592;49.234;7.268;2022-10-31T06:53:17;10.80;;;5.47;;
11078;SDS011;5592;49.234;7.268;2022-10-31T06:55:42;9.30;;;5.53;;
11078;SDS011;5592;49.234;7.268;2022-10-31T06:58:08;17.80;;;7.03;;
11078;SDS011;5592;49.234;7.268;2022-10-31T07:00:35;9.10;;;6.83;;
11078;SDS011;5592;49.234;7.268;2022-10-31T07:03:02;14.40;;;6.57;;
11078;SDS011;5592;49.234;7.268;2022-10-31T07:05:30;12.47;;;6.60;;
11078;SDS011;5592;49.234;7.268;2022-10-31T07:07:57;12.67;;;6.47;;
11078;SDS011;5592;49.234;7.268;2022-10-31T07:10:25;12.23;;;6.43;;
11078;SDS011;5592;49.234;7.268;2022-10-31T07:12:59;10.80;;;6.03;;
11078;SDS011;5592;49.234;7.268;2022-10-31T07:15:27;11.90;;;6.77;;
11078;SDS011;5592;49.234;7.268;2022-10-31T07:17:54;9.37;;;6.37;;
11078;SDS011;5592;49.234;7.268;2022-10-31T07:23:00;9.40;;;6.20;;
11078;SDS011;5592;49.234;7.268;2022-10-31T07:25:29;9.80;;;6.17;;
11078;SDS011;5592;49.234;7.268;2022-10-31T07:27:55;10.03;;;5.67;;
11078;SDS011;5592;49.234;7.268;2022-10-31T07:30:20;11.27;;;6.10;;
11078;SDS011;5592;49.234;7.268;2022-10-31T07:32:47;9.10;;;5.90;;
11078;SDS011;5592;49.234;7.268;2022-10-31T07:35:18;15.07;;;6.40;;
11078;SDS011;5592;49.234;7.268;2022-10-31T07:37:45;13.87;;;5.97;;
11078;SDS011;5592;49.234;7.268;2022-10-31T07:40:12;14.47;;;6.40;;
11078;SDS011;5592;49.234;7.268;2022-10-31T07:42:38;11.77;;;6.30;;
11078;SDS011;5592;49.234;7.268;2022-10-31T07:45:05;11.97;;;6.13;;
11078;SDS011;5592;49.234;7.268;2022-10-31T07:47:39;10.93;;;5.80;;
11078;SDS011;5592;49.234;7.268;2022-10-31T07:50:09;17.63;;;6.00;;
11078;SDS011;5592;49.234;7.268;2022-10-31T07:52:36;8.53;;;5.87;;
11078;SDS011;5592;49.234;7.268;2022-10-31T07:55:02;17.67;;;6.47;;
11078;SDS011;5592;49.234;7.268;2022-10-31T07:57:28;13.13;;;6.43;;
11078;SDS011;5592;49.234;7.268;2022-10-31T07:59:54;12.73;;;6.70;;
11078;SDS011;5592;49.234;7.268;2022-10-31T08:02:20;16.17;;;6.60;;
11078;SDS011;5592;49.234;7.268;2022-10-31T08:04:46;9.10;;;6.50;;
11078;SDS011;5592;49.234;7.268;2022-10-31T08:07:11;8.90;;;6.30;;
11078;SDS011;5592;49.234;7.268;2022-10-31T08:09:37;9.80;;;6.70;;
11078;SDS011;5592;49.234;7.268;2022-10-31T08:12:03;16.43;;;7.23;;
11078;SDS011;5592;49.234;7.268;2022-10-31T08:14:29;10.67;;;5.93;;
11078;SDS011;5592;49.234;7.268;2022-10-31T08:16:55;11.03;;;6.17;;
11078;SDS011;5592;49.234;7.268;2022-10-31T08:19:20;13.53;;;5.63;;
11078;SDS011;5592;49.234;7.268;2022-10-31T08:21:46;16.00;;;6.90;;
11078;SDS011;5592;49.234;7.268;2022-10-31T08:24:15;11.70;;;6.20;;
11078;SDS011;5592;49.234;7.268;2022-10-31T08:26:40;10.13;;;5.67;;
11078;SDS011;5592;49.234;7.268;2022-10-31T08:29:06;13.80;;;5.17;;
11078;SDS011;5592;49.234;7.268;2022-10-31T08:31:31;8.73;;;4.80;;
11078;SDS011;5592;49.234;7.268;2022-10-31T08:33:57;14.07;;;5.87;;
11078;SDS011;5592;49.234;7.268;2022-10-31T08:36:23;7.37;;;5.27;;
11078;SDS011;5592;49.234;7.268;2022-10-31T08:38:48;8.80;;;5.33;;
11078;SDS011;5592;49.234;7.268;2022-10-31T08:41:14;9.40;;;5.23;;
11078;SDS011;5592;49.234;7.268;2022-10-31T08:43:40;13.13;;;5.43;;
11078;SDS011;5592;49.234;7.268;2022-10-31T08:46:06;11.10;;;5.77;;
11078;SDS011;5592;49.234;7.268;2022-10-31T08:48:31;11.80;;;5.30;;
11078;SDS011;5592;49.234;7.268;2022-10-31T08:51:00;11.00;;;5.77;;
11078;SDS011;5592;49.234;7.268;2022-10-31T08:53:26;10.60;;;5.30;;
11078;SDS011;5592;49.234;7.268;2022-10-31T08:55:53;10.87;;;5.70;;
11078;SDS011;5592;49.234;7.268;2022-10-31T08:58:22;8.50;;;5.80;;
11078;SDS011;5592;49.234;7.268;2022-10-31T09:00:52;13.23;;;5.80;;
11078;SDS011;5592;49.234;7.268;2022-10-31T09:03:25;15.40;;;6.20;;
11078;SDS011;5592;49.234;7.268;2022-10-31T09:05:59;17.40;;;5.90;;
11078;SDS011;5592;49.234;7.268;2022-10-31T09:08:28;10.20;;;5.43;;
11078;SDS011;5592;49.234;7.268;2022-10-31T09:10:56;8.53;;;5.07;;
11078;SDS011;5592;49.234;7.268;2022-10-31T09:13:23;11.13;;;5.63;;
11078;SDS011;5592;49.234;7.268;2022-10-31T09:15:49;15.63;;;5.70;;
11078;SDS011;5592;49.234;7.268;2022-10-31T09:18:19;12.43;;;5.07;;
11078;SDS011;5592;49.234;7.268;2022-10-31T09:20:46;13.10;;;5.40;;
11078;SDS011;5592;49.234;7.268;2022-10-31T09:23:14;7.90;;;5.07;;
11078;SDS011;5592;49.234;7.268;2022-10-31T09:25:44;11.43;;;6.17;;
11078;SDS011;5592;49.234;7.268;2022-10-31T09:28:12;8.40;;;5.13;;
11078;SDS011;5592;49.234;7.268;2022-10-31T09:30:39;11.93;;;5.77;;
11078;SDS011;5592;49.234;7.268;2022-10-31T09:33:06;11.50;;;5.90;;
11078;SDS011;5592;49.234;7.268;2022-10-31T09:35:35;16.60;;;6.00;;
11078;SDS011;5592;49.234;7.268;2022-10-31T09:38:02;9.10;;;5.70;;
11078;SDS011;5592;49.234;7.268;2022-10-31T09:40:36;12.70;;;5.87;;
11078;SDS011;5592;49.234;7.268;2022-10-31T09:46:07;11.50;;;5.10;;
11078;SDS011;5592;49.234;7.268;2022-10-31T09:49:02;12.80;;;5.53;;
11078;SDS011;5592;49.234;7.268;2022-10-31T09:52:00;5.80;;;4.73;;
11078;SDS011;5592;49.234;7.268;2022-10-31T09:54:38;7.70;;;4.80;;
11078;SDS011;5592;49.234;7.268;2022-10-31T09:57:08;6.70;;;5.40;;
11078;SDS011;5592;49.234;7.268;2022-10-31T09:59:38;10.00;;;5.17;;
11078;SDS011;5592;49.234;7.268;2022-10-31T10:02:10;10.30;;;4.73;;
11078;SDS011;5592;49.234;7.268;2022-10-31T10:04:39;8.93;;;4.63;;
11078;SDS011;5592;49.234;7.268;2022-10-31T10:10:32;6.40;;;4.53;;
11078;SDS011;5592;49.234;7.268;2022-10-31T10:13:05;6.77;;;4.90;;
11078;SDS011;5592;49.234;7.268;2022-10-31T10:15:59;17.53;;;5.43;;
11078;SDS011;5592;49.234;7.268;2022-10-31T10:18:57;10.40;;;4.73;;
11078;SDS011;5592;49.234;7.268;2022-10-31T10:29:58;9.50;;;4.93;;
11078;SDS011;5592;49.234;7.268;2022-10-31T10:32:56;8.03;;;5.00;;
11078;SDS011;5592;49.234;7.268;2022-10-31T10:35:34;9.37;;;4.67;;
11078;SDS011;5592;49.234;7.268;2022-10-31T10:38:24;7.13;;;4.60;;
11078;SDS011;5592;49.234;7.268;2022-10-31T10:41:02;12.40;;;5.17;;
11078;SDS011;5592;49.234;7.268;2022-10-31T10:43:36;14.87;;;4.20;;
11078;SDS011;5592;49.234;7.268;2022-10-31T10:52:13;10.83;;;4.57;;
11078;SDS011;5592;49.234;7.268;2022-10-31T10:54:54;11.00;;;4.53;;
11078;SDS011;5592;49.234;7.268;2022-10-31T11:00:22;15.33;;;4.97;;
11078;SDS011;5592;49.234;7.268;2022-10-31T11:02:54;9.13;;;4.73;;
11078;SDS011;5592;49.234;7.268;2022-10-31T11:08:07;9.73;;;4.50;;
11078;SDS011;5592;49.234;7.268;2022-10-31T11:10:33;12.20;;;4.87;;
11078;SDS011;5592;49.234;7.268;2022-10-31T11:15:39;11.10;;;4.87;;
11078;SDS011;5592;49.234;7.268;2022-10-31T11:18:36;6.67;;;4.07;;
11078;SDS011;5592;49.234;7.268;2022-10-31T11:21:04;7.90;;;4.50;;
11078;SDS011;5592;49.234;7.268;2022-10-31T11:23:31;11.40;;;4.70;;
11078;SDS011;5592;49.234;7.268;2022-10-31T11:28:23;12.07;;;4.40;;
11078;SDS011;5592;49.234;7.268;2022-10-31T11:30:51;6.90;;;4.30;;
11078;SDS011;5592;49.234;7.268;2022-10-31T11:35:58;7.47;;;4.37;;
11078;SDS011;5592;49.234;7.268;2022-10-31T11:38:30;6.00;;;4.23;;
11078;SDS011;5592;49.234;7.268;2022-10-31T11:41:04;9.03;;;4.47;;
11078;SDS011;5592;49.234;7.268;2022-10-31T11:43:45;11.10;;;4.80;;
11078;SDS011;5592;49.234;7.268;2022-10-31T11:46:18;12.87;;;4.70;;
11078;SDS011;5592;49.234;7.268;2022-10-31T11:49:06;11.67;;;4.60;;
11078;SDS011;5592;49.234;7.268;2022-10-31T11:51:58;13.90;;;4.37;;
11078;SDS011;5592;49.234;7.268;2022-10-31T11:54:32;13.67;;;4.57;;
11078;SDS011;5592;49.234;7.268;2022-10-31T11:57:59;6.73;;;4.50;;
11078;SDS011;5592;49.234;7.268;2022-10-31T12:00:23;12.27;;;4.20;;
11078;SDS011;5592;49.234;7.268;2022-10-31T12:02:49;9.00;;;4.00;;
11078;SDS011;5592;49.234;7.268;2022-10-31T12:05:19;8.57;;;4.07;;
11078;SDS011;5592;49.234;7.268;2022-10-31T12:07:50;9.67;;;4.97;;
11078;SDS011;5592;49.234;7.268;2022-10-31T12:10:16;8.60;;;4.40;;
11078;SDS011;5592;49.234;7.268;2022-10-31T12:15:26;11.47;;;3.90;;
11078;SDS011;5592;49.234;7.268;2022-10-31T12:18:03;8.95;;;4.50;;
11078;SDS011;5592;49.234;7.268;2022-10-31T12:23:31;9.27;;;4.13;;
11078;SDS011;5592;49.234;7.268;2022-10-31T12:26:18;13.30;;;4.20;;
11078;SDS011;5592;49.234;7.268;2022-10-31T12:43:06;10.10;;;4.20;;
11078;SDS011;5592;49.234;7.268;2022-10-31T12:50:52;8.80;;;4.00;;
11078;SDS011;5592;49.234;7.268;2022-10-31T12:59:45;5.43;;;3.27;;
11078;SDS011;5592;49.234;7.268;2022-10-31T13:02:18;9.07;;;3.80;;
11078;SDS011;5592;49.234;7.268;2022-10-31T13:08:07;7.20;;;3.83;;
11078;SDS011;5592;49.234;7.268;2022-10-31T13:11:35;8.90;;;3.00;;
11078;SDS011;5592;49.234;7.268;2022-10-31T13:13:54;9.87;;;3.40;;
11078;SDS011;5592;49.234;7.268;2022-10-31T13:16:28;13.53;;;3.80;;
11078;SDS011;5592;49.234;7.268;2022-10-31T13:18:57;5.40;;;3.20;;
11078;SDS011;5592;49.234;7.268;2022-10-31T13:24:39;6.30;;;3.73;;
11078;SDS011;5592;49.234;7.268;2022-10-31T13:28:01;8.47;;;3.67;;
11078;SDS011;5592;49.234;7.268;2022-10-31T13:30:36;13.67;;;4.80;;
11078;SDS011;5592;49.234;7.268;2022-10-31T13:35:52;7.67;;;3.80;;
11078;SDS011;5592;49.234;7.268;2022-10-31T13:38:44;14.20;;;3.60;;
11078;SDS011;5592;49.234;7.268;2022-10-31T13:41:21;5.47;;;3.67;;
11078;SDS011;5592;49.234;7.268;2022-10-31T13:44:03;9.17;;;3.90;;
11078;SDS011;5592;49.234;7.268;2022-10-31T13:46:41;6.27;;;4.23;;
11078;SDS011;5592;49.234;7.268;2022-10-31T13:51:50;7.80;;;3.60;;
11078;SDS011;5592;49.234;7.268;2022-10-31T13:54:20;7.67;;;4.50;;
11078;SDS011;5592;49.234;7.268;2022-10-31T13:56:50;10.23;;;4.93;;
11078;SDS011;5592;49.234;7.268;2022-10-31T13:59:18;7.13;;;4.30;;
11078;SDS011;5592;49.234;7.268;2022-10-31T14:04:25;10.97;;;4.53;;
11078;SDS011;5592;49.234;7.268;2022-10-31T14:12:51;7.70;;;3.60;;
11078;SDS011;5592;49.234;7.268;2022-10-31T14:15:27;9.33;;;4.53;;
11078;SDS011;5592;49.234;7.268;2022-10-31T14:17:54;14.10;;;4.20;;
11078;SDS011;5592;49.234;7.268;2022-10-31T14:22:51;6.17;;;4.33;;
11078;SDS011;5592;49.234;7.268;2022-10-31T14:25:28;10.27;;;4.63;;
11078;SDS011;5592;49.234;7.268;2022-10-31T14:27:58;9.43;;;4.23;;
11078;SDS011;5592;49.234;7.268;2022-10-31T14:30:27;8.00;;;3.93;;
11078;SDS011;5592;49.234;7.268;2022-10-31T14:32:55;6.87;;;3.40;;
11078;SDS011;5592;49.234;7.268;2022-10-31T14:35:25;7.10;;;3.83;;
11078;SDS011;5592;49.234;7.268;2022-10-31T14:52:44;8.77;;;3.63;;
11078;SDS011;5592;49.234;7.268;2022-10-31T14:55:15;9.70;;;4.00;;
11078;SDS011;5592;49.234;7.268;2022-10-31T14:57:44;8.67;;;3.93;;
11078;SDS011;5592;49.234;7.268;2022-10-31T15:00:33;8.87;;;3.47;;
11078;SDS011;5592;49.234;7.268;2022-10-31T15:03:14;5.40;;;3.50;;
11078;SDS011;5592;49.234;7.268;2022-10-31T15:05:56;8.10;;;3.77;;
11078;SDS011;5592;49.234;7.268;2022-10-31T15:08:29;7.77;;;3.60;;
11078;SDS011;5592;49.234;7.268;2022-10-31T15:11:09;10.67;;;4.10;;
11078;SDS011;5592;49.234;7.268;2022-10-31T15:13:41;10.37;;;3.90;;
11078;SDS011;5592;49.234;7.268;2022-10-31T15:16:08;7.83;;;3.40;;
11078;SDS011;5592;49.234;7.268;2022-10-31T15:18:36;7.30;;;3.90;;
11078;SDS011;5592;49.234;7.268;2022-10-31T15:21:09;6.63;;;3.60;;
11078;SDS011;5592;49.234;7.268;2022-10-31T15:23:39;10.57;;;4.00;;
11078;SDS011;5592;49.234;7.268;2022-10-31T15:26:05;7.73;;;3.80;;
11078;SDS011;5592;49.234;7.268;2022-10-31T15:28:31;8.80;;;3.40;;
11078;SDS011;5592;49.234;7.268;2022-10-31T15:30:58;9.30;;;4.07;;
11078;SDS011;5592;49.234;7.268;2022-10-31T15:33:26;9.50;;;4.03;;
11078;SDS011;5592;49.234;7.268;2022-10-31T15:35:57;8.07;;;3.40;;
11078;SDS011;5592;49.234;7.268;2022-10-31T15:38:26;7.73;;;3.70;;
11078;SDS011;5592;49.234;7.268;2022-10-31T15:40:54;9.00;;;3.37;;
11078;SDS011;5592;49.234;7.268;2022-10-31T15:43:32;10.40;;;3.90;;
11078;SDS011;5592;49.234;7.268;2022-10-31T15:46:01;6.23;;;3.60;;
11078;SDS011;5592;49.234;7.268;2022-10-31T15:48:29;5.43;;;3.93;;
11078;SDS011;5592;49.234;7.268;2022-10-31T15:50:56;10.53;;;3.77;;
11078;SDS011;5592;49.234;7.268;2022-10-31T15:53:27;7.57;;;4.13;;
11078;SDS011;5592;49.234;7.268;2022-10-31T15:56:01;8.70;;;4.13;;
11078;SDS011;5592;49.234;7.268;2022-10-31T15:58:35;7.03;;;4.87;;
11078;SDS011;5592;49.234;7.268;2022-10-31T16:01:58;4.83;;;4.00;;
11078;SDS011;5592;49.234;7.268;2022-10-31T16:07:00;14.03;;;4.80;;
11078;SDS011;5592;49.234;7.268;2022-10-31T16:12:51;7.30;;;3.53;;
11078;SDS011;5592;49.234;7.268;2022-10-31T16:15:19;10.50;;;4.63;;
11078;SDS011;5592;49.234;7.268;2022-10-31T16:17:49;10.40;;;4.17;;
11078;SDS011;5592;49.234;7.268;2022-10-31T16:20:19;12.00;;;4.70;;
11078;SDS011;5592;49.234;7.268;2022-10-31T16:22:48;11.60;;;5.10;;
11078;SDS011;5592;49.234;7.268;2022-10-31T16:25:17;9.73;;;4.43;;
11078;SDS011;5592;49.234;7.268;2022-10-31T16:27:51;12.77;;;5.30;;
11078;SDS011;5592;49.234;7.268;2022-10-31T16:30:30;14.73;;;5.50;;
11078;SDS011;5592;49.234;7.268;2022-10-31T16:33:04;8.30;;;4.30;;
11078;SDS011;5592;49.234;7.268;2022-10-31T16:35:44;9.23;;;4.83;;
11078;SDS011;5592;49.234;7.268;2022-10-31T16:38:10;6.13;;;4.50;;
11078;SDS011;5592;49.234;7.268;2022-10-31T16:40:37;8.23;;;4.87;;
11078;SDS011;5592;49.234;7.268;2022-10-31T16:43:03;15.67;;;4.90;;
11078;SDS011;5592;49.234;7.268;2022-10-31T16:45:30;12.10;;;5.00;;
11078;SDS011;5592;49.234;7.268;2022-10-31T16:48:03;11.90;;;5.20;;
11078;SDS011;5592;49.234;7.268;2022-10-31T16:50:30;8.30;;;4.70;;
11078;SDS011;5592;49.234;7.268;2022-10-31T16:52:57;10.23;;;5.00;;
11078;SDS011;5592;49.234;7.268;2022-10-31T16:55:23;14.40;;;6.10;;
11078;SDS011;5592;49.234;7.268;2022-10-31T16:57:52;8.83;;;5.30;;
11078;SDS011;5592;49.234;7.268;2022-10-31T17:00:24;7.03;;;4.90;;
11078;SDS011;5592;49.234;7.268;2022-10-31T17:02:55;10.00;;;5.20;;
11078;SDS011;5592;49.234;7.268;2022-10-31T17:05:21;7.53;;;4.90;;
11078;SDS011;5592;49.234;7.268;2022-10-31T17:07:54;9.60;;;5.43;;
11078;SDS011;5592;49.234;7.268;2022-10-31T17:10:24;8.03;;;5.40;;
11078;SDS011;5592;49.234;7.268;2022-10-31T17:12:50;10.93;;;5.60;;
11078;SDS011;5592;49.234;7.268;2022-10-31T17:17:46;11.73;;;6.23;;
11078;SDS011;5592;49.234;7.268;2022-10-31T17:20:20;13.07;;;6.70;;
11078;SDS011;5592;49.234;7.268;2022-10-31T17:22:53;8.40;;;5.50;;
11078;SDS011;5592;49.234;7.268;2022-10-31T17:25:21;12.40;;;5.13;;
11078;SDS011;5592;49.234;7.268;2022-10-31T17:27:49;7.17;;;4.93;;
11078;SDS011;5592;49.234;7.268;2022-10-31T17:30:15;10.07;;;5.50;;
11078;SDS011;5592;49.234;7.268;2022-10-31T17:32:42;11.50;;;6.00;;
11078;SDS011;5592;49.234;7.268;2022-10-31T17:35:09;9.73;;;5.90;;
11078;SDS011;5592;49.234;7.268;2022-10-31T17:37:37;12.67;;;6.10;;
11078;SDS011;5592;49.234;7.268;2022-10-31T17:40:03;10.40;;;6.40;;
11078;SDS011;5592;49.234;7.268;2022-10-31T17:42:29;10.40;;;6.33;;
11078;SDS011;5592;49.234;7.268;2022-10-31T17:44:55;13.97;;;6.77;;
11078;SDS011;5592;49.234;7.268;2022-10-31T17:47:21;10.30;;;6.60;;
11078;SDS011;5592;49.234;7.268;2022-10-31T17:49:46;9.90;;;5.77;;
11078;SDS011;5592;49.234;7.268;2022-10-31T17:52:12;7.10;;;5.20;;
11078;SDS011;5592;49.234;7.268;2022-10-31T17:54:37;12.37;;;6.03;;
11078;SDS011;5592;49.234;7.268;2022-10-31T17:57:03;11.50;;;6.30;;